Time;durP1;ratioP1;P1;durP2;ratioP2;P2;SDS_P1;SDS_P2;PMS_P1;PMS_P2;Temp;Humidity;BMP_temperature;BMP_pressure;BME280_temperature;BME280_humidity;BME280_pressure;Samples;Min_cycle;Max_cycle;Signal;HPM_P1;HPM_P2
2023/09/17 00:01:53;;;;;;;8.75;4.68;;;;;;;;;;5075744;28;20196;-49
2023/09/17 00:04:21;;;;;;;8.95;4.63;;;;;;;;;;5074166;28;20667;-48
2023/09/17 00:06:48;;;;;;;9.95;5.30;;;;;;;;;;5074310;28;20199;-48
2023/09/17 00:09:17;;;;;;;7.75;4.75;;;;;;;;;;5075284;28;20199;-48
2023/09/17 00:11:45;;;;;;;9.43;4.75;;;;;;;;;;5075221;28;20207;-50
2023/09/17 00:14:12;;;;;;;8.48;4.57;;;;;;;;;;5075486;28;20253;-48
2023/09/17 00:16:39;;;;;;;10.73;4.78;;;;;;;;;;5058342;28;20230;-48
2023/09/17 00:19:07;;;;;;;8.57;5.25;;;;;;;;;;5053167;28;20700;-49
2023/09/17 00:21:34;;;;;;;9.80;5.00;;;;;;;;;;5052296;28;20290;-51
2023/09/17 00:24:01;;;;;;;9.40;5.28;;;;;;;;;;5053290;28;20211;-49
2023/09/17 00:26:28;;;;;;;8.30;4.72;;;;;;;;;;5053159;28;20192;-50
2023/09/17 00:28:55;;;;;;;9.23;4.47;;;;;;;;;;5052964;28;20204;-49
2023/09/17 00:31:22;;;;;;;9.27;5.25;;;;;;;;;;5051928;28;20207;-49
2023/09/17 00:33:50;;;;;;;12.10;5.72;;;;;;;;;;5051970;28;20200;-49
2023/09/17 00:36:18;;;;;;;9.70;5.45;;;;;;;;;;5053140;28;20197;-49
2023/09/17 00:38:45;;;;;;;12.13;5.28;;;;;;;;;;5054744;28;20215;-49
2023/09/17 00:41:12;;;;;;;8.57;5.18;;;;;;;;;;5054907;28;20227;-48
2023/09/17 00:43:39;;;;;;;14.90;5.05;;;;;;;;;;5053749;28;20204;-48
2023/09/17 00:46:07;;;;;;;10.82;5.65;;;;;;;;;;5054543;28;20291;-49
2023/09/17 00:48:34;;;;;;;10.45;5.80;;;;;;;;;;5037227;28;20208;-50
2023/09/17 00:51:03;;;;;;;14.07;5.20;;;;;;;;;;5053586;28;20227;-50
2023/09/17 00:53:30;;;;;;;9.10;5.05;;;;;;;;;;5053367;28;20208;-48
2023/09/17 00:55:58;;;;;;;10.50;4.88;;;;;;;;;;5053499;28;20589;-48
2023/09/17 00:58:28;;;;;;;10.27;5.40;;;;;;;;;;5054576;28;20278;-49
2023/09/17 01:00:56;;;;;;;9.65;5.80;;;;;;;;;;5053179;28;20228;-48
2023/09/17 01:03:25;;;;;;;9.40;5.30;;;;;;;;;;5052160;28;20695;-48
2023/09/17 01:05:53;;;;;;;10.52;5.57;;;;;;;;;;5053219;28;20203;-50
2023/09/17 01:08:22;;;;;;;12.95;5.63;;;;;;;;;;5054535;28;20238;-48
2023/09/17 01:10:50;;;;;;;11.68;4.85;;;;;;;;;;5054459;28;20210;-49
2023/09/17 01:13:18;;;;;;;10.85;5.90;;;;;;;;;;5052880;28;20211;-50
2023/09/17 01:15:45;;;;;;;9.48;5.40;;;;;;;;;;5053078;28;20206;-50
2023/09/17 01:18:16;;;;;;;9.68;5.32;;;;;;;;;;5053860;28;20235;-49
2023/09/17 01:21:01;;;;;;;9.93;5.43;;;;;;;;;;5054300;28;20223;-49
2023/09/17 01:23:41;;;;;;;11.07;5.40;;;;;;;;;;5054230;28;20215;-48
2023/09/17 01:26:25;;;;;;;11.90;5.75;;;;;;;;;;5053894;28;20650;-49
2023/09/17 01:28:54;;;;;;;10.65;5.78;;;;;;;;;;5052642;28;20211;-48
2023/09/17 01:31:22;;;;;;;14.27;6.47;;;;;;;;;;5053102;28;20298;-48
2023/09/17 01:33:51;;;;;;;12.10;5.75;;;;;;;;;;5053870;28;20200;-50
2023/09/17 01:36:32;;;;;;;12.98;5.65;;;;;;;;;;5053791;28;20250;-49
2023/09/17 01:39:13;;;;;;;12.90;6.22;;;;;;;;;;5052679;28;20214;-47
2023/09/17 01:41:41;;;;;;;12.35;5.88;;;;;;;;;;5036359;28;20188;-49
2023/09/17 01:44:08;;;;;;;12.68;6.15;;;;;;;;;;5052349;28;20204;-48
2023/09/17 01:46:50;;;;;;;17.63;6.55;;;;;;;;;;5052572;28;20265;-49
2023/09/17 01:49:18;;;;;;;11.30;6.22;;;;;;;;;;5035458;28;20211;-48
2023/09/17 01:51:46;;;;;;;11.75;5.75;;;;;;;;;;5052476;28;20204;-48
2023/09/17 01:54:14;;;;;;;17.27;6.60;;;;;;;;;;5053303;28;20200;-50
2023/09/17 01:56:43;;;;;;;12.38;6.55;;;;;;;;;;5052517;28;20196;-48
2023/09/17 01:59:10;;;;;;;11.32;6.00;;;;;;;;;;5052373;28;20215;-48
2023/09/17 02:01:37;;;;;;;10.45;6.63;;;;;;;;;;5052418;28;20196;-53
2023/09/17 02:04:05;;;;;;;14.88;7.22;;;;;;;;;;5052227;28;20200;-48
2023/09/17 02:06:32;;;;;;;14.48;6.18;;;;;;;;;;5052091;28;20207;-47
2023/09/17 02:08:59;;;;;;;10.57;6.68;;;;;;;;;;5052122;28;20649;-49
2023/09/17 02:11:26;;;;;;;13.30;7.30;;;;;;;;;;5053455;28;20203;-49
2023/09/17 02:13:53;;;;;;;12.07;6.82;;;;;;;;;;5056777;28;20596;-49
2023/09/17 02:16:21;;;;;;;13.63;6.45;;;;;;;;;;5059728;28;20245;-47
2023/09/17 02:18:51;;;;;;;15.20;6.65;;;;;;;;;;5058718;28;20254;-49
2023/09/17 02:21:18;;;;;;;10.85;5.80;;;;;;;;;;5059736;28;20692;-49
2023/09/17 02:23:45;;;;;;;16.00;7.20;;;;;;;;;;5060151;28;20204;-49
2023/09/17 02:26:12;;;;;;;13.93;6.78;;;;;;;;;;5060005;28;20196;-49
2023/09/17 02:28:40;;;;;;;17.75;6.60;;;;;;;;;;5059866;28;20195;-49
2023/09/17 02:31:07;;;;;;;11.93;6.65;;;;;;;;;;5058646;28;20607;-48
2023/09/17 02:33:34;;;;;;;14.20;7.13;;;;;;;;;;5059669;28;20212;-48
2023/09/17 02:36:03;;;;;;;13.52;6.50;;;;;;;;;;5060006;28;20196;-47
2023/09/17 02:38:30;;;;;;;13.02;7.32;;;;;;;;;;5059711;28;20204;-48
2023/09/17 02:40:59;;;;;;;12.05;6.50;;;;;;;;;;5059921;28;20223;-48
2023/09/17 02:43:29;;;;;;;15.60;7.28;;;;;;;;;;5059958;28;20204;-49
2023/09/17 02:45:56;;;;;;;11.10;6.35;;;;;;;;;;5059547;28;20201;-51
2023/09/17 02:48:24;;;;;;;11.50;6.03;;;;;;;;;;5059550;28;20212;-48
2023/09/17 02:50:51;;;;;;;12.55;7.00;;;;;;;;;;5059612;28;20665;-47
2023/09/17 02:53:18;;;;;;;12.32;6.53;;;;;;;;;;5058980;28;20208;-48
2023/09/17 02:55:47;;;;;;;11.73;6.30;;;;;;;;;;5058656;28;20291;-49
2023/09/17 02:58:15;;;;;;;15.38;7.45;;;;;;;;;;5072927;28;20206;-49
2023/09/17 03:00:44;;;;;;;11.68;6.10;;;;;;;;;;5078528;28;20280;-48
2023/09/17 03:03:13;;;;;;;10.50;6.55;;;;;;;;;;5079372;28;20203;-48
2023/09/17 03:05:40;;;;;;;11.50;6.50;;;;;;;;;;5079877;28;20203;-47
2023/09/17 03:08:09;;;;;;;16.20;6.65;;;;;;;;;;5078283;28;20203;-49
2023/09/17 03:10:48;;;;;;;11.82;6.43;;;;;;;;;;5078364;28;20203;-48
2023/09/17 03:13:16;;;;;;;12.77;6.32;;;;;;;;;;5079835;28;20203;-49
2023/09/17 03:15:44;;;;;;;12.80;6.65;;;;;;;;;;5078296;28;20231;-48
2023/09/17 03:18:13;;;;;;;15.10;6.95;;;;;;;;;;5079672;28;20249;-48
2023/09/17 03:20:42;;;;;;;12.32;6.70;;;;;;;;;;5077916;28;20219;-47
2023/09/17 03:23:11;;;;;;;14.10;6.35;;;;;;;;;;5078132;28;20211;-50
2023/09/17 03:25:38;;;;;;;13.30;6.95;;;;;;;;;;5075101;28;20683;-50
2023/09/17 03:28:06;;;;;;;14.57;6.88;;;;;;;;;;5076062;28;20664;-48
2023/09/17 03:30:33;;;;;;;14.20;6.75;;;;;;;;;;5076051;28;20696;-49
2023/09/17 03:33:05;;;;;;;12.10;6.65;;;;;;;;;;5074964;28;20201;-48
2023/09/17 03:35:51;;;;;;;12.50;6.22;;;;;;;;;;5074685;28;20242;-48
2023/09/17 03:38:22;;;;;;;12.85;6.10;;;;;;;;;;5074850;28;20634;-49
2023/09/17 03:40:49;;;;;;;13.38;6.18;;;;;;;;;;5074624;28;20223;-49
2023/09/17 03:43:17;;;;;;;15.15;7.60;;;;;;;;;;5074742;28;20203;-50
2023/09/17 03:45:45;;;;;;;12.88;6.90;;;;;;;;;;5074347;28;20208;-48
2023/09/17 03:48:12;;;;;;;12.43;6.20;;;;;;;;;;5074261;28;20210;-47
2023/09/17 03:50:41;;;;;;;10.15;6.10;;;;;;;;;;5074521;28;20294;-50
2023/09/17 03:53:08;;;;;;;14.40;7.10;;;;;;;;;;5074483;28;20203;-48
2023/09/17 03:55:36;;;;;;;13.10;6.85;;;;;;;;;;5057732;28;20206;-49
2023/09/17 03:58:04;;;;;;;14.10;6.90;;;;;;;;;;5075275;28;20737;-49
2023/09/17 04:00:38;;;;;;;16.05;6.97;;;;;;;;;;5058523;28;20222;-50
2023/09/17 04:03:08;;;;;;;11.98;7.03;;;;;;;;;;5075079;28;20210;-48
2023/09/17 04:05:36;;;;;;;11.88;6.88;;;;;;;;;;5073966;28;20199;-48
2023/09/17 04:08:04;;;;;;;13.50;7.35;;;;;;;;;;5073918;28;20195;-48
2023/09/17 04:10:31;;;;;;;11.98;6.68;;;;;;;;;;5073860;28;20204;-49
2023/09/17 04:12:59;;;;;;;12.10;6.75;;;;;;;;;;5062870;28;20200;-49
2023/09/17 04:15:26;;;;;;;11.50;6.45;;;;;;;;;;5073868;28;20199;-48
2023/09/17 04:17:54;;;;;;;15.63;6.80;;;;;;;;;;5073806;28;20235;-48
2023/09/17 04:20:23;;;;;;;13.68;7.10;;;;;;;;;;5074739;28;20215;-49
2023/09/17 04:22:51;;;;;;;14.30;7.05;;;;;;;;;;5073826;28;20206;-48
2023/09/17 04:25:19;;;;;;;11.32;6.10;;;;;;;;;;5074924;28;20211;-48
2023/09/17 04:27:49;;;;;;;12.90;6.72;;;;;;;;;;5073544;28;20199;-48
2023/09/17 04:30:19;;;;;;;12.77;6.85;;;;;;;;;;5073805;28;20346;-49
2023/09/17 04:32:50;;;;;;;12.57;7.28;;;;;;;;;;5071857;28;20664;-51
2023/09/17 04:35:17;;;;;;;13.57;7.30;;;;;;;;;;5072188;28;20547;-49
2023/09/17 04:37:47;;;;;;;10.63;6.90;;;;;;;;;;5072811;28;20196;-55
2023/09/17 04:40:18;;;;;;;13.95;6.93;;;;;;;;;;5070825;28;20289;-52
2023/09/17 04:42:47;;;;;;;17.50;7.65;;;;;;;;;;5073351;28;20199;-54
2023/09/17 04:45:32;;;;;;;13.27;7.10;;;;;;;;;;5070733;28;20585;-51
2023/09/17 04:48:01;;;;;;;14.30;6.50;;;;;;;;;;5070559;28;20202;-55
2023/09/17 04:50:28;;;;;;;11.98;6.60;;;;;;;;;;5050205;28;20204;-53
2023/09/17 04:52:56;;;;;;;13.27;6.95;;;;;;;;;;5071438;28;20199;-50
2023/09/17 04:55:24;;;;;;;13.68;7.10;;;;;;;;;;5070443;28;20207;-50
2023/09/17 04:57:54;;;;;;;13.90;7.07;;;;;;;;;;5070797;28;20586;-50
2023/09/17 05:00:21;;;;;;;11.15;7.03;;;;;;;;;;5071226;28;20271;-48
2023/09/17 05:02:49;;;;;;;11.90;6.65;;;;;;;;;;5072615;28;20540;-49
2023/09/17 05:05:18;;;;;;;14.30;6.82;;;;;;;;;;5070509;28;20203;-53
2023/09/17 05:07:49;;;;;;;12.07;6.35;;;;;;;;;;5058628;28;20207;-49
2023/09/17 05:10:16;;;;;;;12.48;6.60;;;;;;;;;;5052976;28;20656;-49
2023/09/17 05:12:44;;;;;;;13.68;6.95;;;;;;;;;;5052937;28;20215;-48
2023/09/17 05:15:12;;;;;;;12.95;6.93;;;;;;;;;;5056654;28;20211;-50
2023/09/17 05:17:40;;;;;;;13.95;8.18;;;;;;;;;;5069373;28;20226;-50
2023/09/17 05:20:09;;;;;;;14.02;7.40;;;;;;;;;;5068555;28;20250;-49
2023/09/17 05:22:36;;;;;;;17.63;7.60;;;;;;;;;;5072102;28;20211;-50
2023/09/17 05:25:04;;;;;;;16.50;7.65;;;;;;;;;;5067777;28;20559;-52
2023/09/17 05:27:32;;;;;;;14.50;7.82;;;;;;;;;;5072140;28;20656;-50
2023/09/17 05:30:00;;;;;;;15.48;7.57;;;;;;;;;;5068933;28;20627;-49
2023/09/17 05:32:28;;;;;;;15.20;7.53;;;;;;;;;;5072271;28;20210;-50
2023/09/17 05:34:59;;;;;;;18.27;8.10;;;;;;;;;;5071822;28;20273;-52
2023/09/17 05:37:27;;;;;;;15.52;8.02;;;;;;;;;;5070802;28;20199;-53
2023/09/17 05:39:55;;;;;;;12.25;7.72;;;;;;;;;;5066111;28;20280;-48
2023/09/17 05:42:23;;;;;;;17.30;8.13;;;;;;;;;;5071616;28;20239;-49
2023/09/17 05:44:50;;;;;;;13.57;7.70;;;;;;;;;;5071198;28;20227;-52
2023/09/17 05:47:18;;;;;;;15.73;8.20;;;;;;;;;;5071572;28;20245;-54
2023/09/17 05:49:45;;;;;;;14.80;7.97;;;;;;;;;;5070507;28;20726;-54
2023/09/17 05:52:13;;;;;;;15.35;8.57;;;;;;;;;;5072829;28;20219;-50
2023/09/17 05:54:40;;;;;;;15.57;8.40;;;;;;;;;;5071012;28;20726;-50
2023/09/17 05:57:07;;;;;;;13.18;8.35;;;;;;;;;;5072662;28;20230;-52
2023/09/17 05:59:35;;;;;;;16.88;8.63;;;;;;;;;;5058856;28;20304;-48
2023/09/17 06:02:03;;;;;;;15.43;8.77;;;;;;;;;;5051226;28;20610;-49
2023/09/17 06:04:30;;;;;;;18.85;9.60;;;;;;;;;;5052769;28;20235;-50
2023/09/17 06:06:57;;;;;;;17.35;9.02;;;;;;;;;;5052469;28;20629;-49
2023/09/17 06:09:24;;;;;;;18.88;8.55;;;;;;;;;;5052454;28;20286;-49
2023/09/17 06:11:51;;;;;;;17.15;8.75;;;;;;;;;;5051247;28;20228;-50
2023/09/17 06:14:18;;;;;;;14.68;9.32;;;;;;;;;;5051466;28;20232;-47
2023/09/17 06:16:46;;;;;;;15.23;8.30;;;;;;;;;;5050969;28;20247;-48
2023/09/17 06:19:24;;;;;;;14.75;9.20;;;;;;;;;;5052881;28;20242;-47
2023/09/17 06:21:53;;;;;;;16.70;9.25;;;;;;;;;;5051295;28;20242;-47
2023/09/17 06:24:21;;;;;;;16.08;9.25;;;;;;;;;;5064566;28;20652;-52
2023/09/17 06:26:48;;;;;;;15.93;8.82;;;;;;;;;;5071143;28;20241;-49
2023/09/17 06:29:16;;;;;;;15.38;8.25;;;;;;;;;;5071443;28;20253;-52
2023/09/17 06:31:44;;;;;;;15.02;8.85;;;;;;;;;;5071382;28;20223;-50
2023/09/17 06:34:12;;;;;;;19.65;9.63;;;;;;;;;;5071136;28;20258;-49
2023/09/17 06:36:39;;;;;;;14.73;8.77;;;;;;;;;;5057474;28;20633;-50
2023/09/17 06:39:06;;;;;;;14.90;8.57;;;;;;;;;;5034193;28;20231;-50
2023/09/17 06:41:34;;;;;;;15.90;8.35;;;;;;;;;;5051407;28;20239;-47
2023/09/17 06:44:05;;;;;;;14.88;8.55;;;;;;;;;;5052009;28;20724;-53
2023/09/17 06:46:33;;;;;;;14.85;8.82;;;;;;;;;;5052246;28;20758;-52
2023/09/17 06:49:00;;;;;;;15.18;8.48;;;;;;;;;;5071380;28;20677;-56
2023/09/17 06:51:28;;;;;;;16.95;9.07;;;;;;;;;;5070795;28;20717;-52
2023/09/17 06:53:55;;;;;;;16.08;9.25;;;;;;;;;;5071641;28;20261;-57
2023/09/17 06:56:25;;;;;;;16.55;8.85;;;;;;;;;;5072334;28;20588;-55
2023/09/17 06:58:53;;;;;;;15.98;8.77;;;;;;;;;;5072119;28;20219;-56
2023/09/17 07:01:20;;;;;;;13.32;7.90;;;;;;;;;;5074178;28;20231;-49
2023/09/17 07:03:47;;;;;;;16.25;8.85;;;;;;;;;;5075750;28;20348;-53
2023/09/17 07:06:16;;;;;;;15.43;7.82;;;;;;;;;;5075918;28;20272;-53
2023/09/17 07:08:43;;;;;;;15.77;8.82;;;;;;;;;;5075351;28;20223;-48
2023/09/17 07:11:10;;;;;;;14.27;8.25;;;;;;;;;;5073669;28;20227;-48
2023/09/17 07:13:38;;;;;;;15.10;8.70;;;;;;;;;;5075879;28;20254;-50
2023/09/17 07:16:06;;;;;;;15.18;7.70;;;;;;;;;;5075646;28;20577;-54
2023/09/17 07:18:34;;;;;;;13.55;7.85;;;;;;;;;;5075951;28;20223;-51
2023/09/17 07:21:01;;;;;;;13.45;8.18;;;;;;;;;;5074218;28;20239;-53
2023/09/17 07:23:29;;;;;;;15.57;8.57;;;;;;;;;;5075174;28;20227;-53
2023/09/17 07:25:57;;;;;;;13.98;8.50;;;;;;;;;;5075092;28;20269;-58
2023/09/17 07:28:24;;;;;;;15.07;8.88;;;;;;;;;;5075051;28;20223;-55
2023/09/17 07:30:55;;;;;;;13.40;7.75;;;;;;;;;;5075007;28;20223;-57
2023/09/17 07:33:23;;;;;;;13.77;8.27;;;;;;;;;;5075061;28;20558;-54
2023/09/17 07:35:50;;;;;;;12.52;8.18;;;;;;;;;;5074074;28;20223;-56
2023/09/17 07:38:17;;;;;;;12.80;8.10;;;;;;;;;;5072630;28;20230;-56
2023/09/17 07:40:45;;;;;;;14.88;7.80;;;;;;;;;;5072872;28;20612;-57
2023/09/17 07:43:12;;;;;;;15.23;8.48;;;;;;;;;;5068877;28;20211;-57
2023/09/17 07:45:40;;;;;;;14.48;7.93;;;;;;;;;;5053070;28;20232;-57
2023/09/17 07:48:07;;;;;;;14.65;8.18;;;;;;;;;;5064214;28;20223;-58
2023/09/17 07:50:34;;;;;;;15.18;8.23;;;;;;;;;;5052670;28;20232;-55
2023/09/17 07:53:02;;;;;;;15.80;8.15;;;;;;;;;;5055942;28;20748;-58
2023/09/17 07:55:29;;;;;;;10.95;7.40;;;;;;;;;;5065340;28;20228;-58
2023/09/17 07:57:57;;;;;;;12.20;7.35;;;;;;;;;;5072648;28;20215;-58
2023/09/17 08:00:25;;;;;;;12.45;7.05;;;;;;;;;;5072651;28;20223;-58
2023/09/17 08:02:52;;;;;;;14.90;7.00;;;;;;;;;;5072496;28;20235;-58
2023/09/17 08:05:19;;;;;;;14.88;7.35;;;;;;;;;;5072825;28;20230;-49
2023/09/17 08:07:46;;;;;;;13.18;7.32;;;;;;;;;;5073269;28;20288;-50
2023/09/17 08:10:14;;;;;;;12.77;7.40;;;;;;;;;;5074812;28;20242;-55
2023/09/17 08:12:41;;;;;;;12.27;7.38;;;;;;;;;;5074160;28;20249;-51
2023/09/17 08:15:08;;;;;;;12.63;7.13;;;;;;;;;;5074471;28;20235;-54
2023/09/17 08:17:36;;;;;;;14.38;6.93;;;;;;;;;;5074451;28;20238;-50
2023/09/17 08:20:09;;;;;;;11.55;7.40;;;;;;;;;;5074567;28;20590;-51
2023/09/17 08:22:37;;;;;;;12.63;7.43;;;;;;;;;;5074114;28;20251;-51
2023/09/17 08:25:06;;;;;;;11.68;7.28;;;;;;;;;;5054424;28;20216;-56
2023/09/17 08:27:33;;;;;;;10.13;6.97;;;;;;;;;;5054517;28;20746;-52
2023/09/17 08:30:03;;;;;;;20.92;7.30;;;;;;;;;;5054167;28;20220;-51
2023/09/17 08:32:30;;;;;;;10.93;6.93;;;;;;;;;;5053027;28;20635;-55
2023/09/17 08:34:57;;;;;;;11.35;6.57;;;;;;;;;;5054053;28;20224;-53
2023/09/17 08:37:24;;;;;;;11.57;6.75;;;;;;;;;;5053666;28;20220;-57
2023/09/17 08:39:52;;;;;;;14.05;7.05;;;;;;;;;;5053842;28;20220;-53
2023/09/17 08:42:19;;;;;;;10.77;6.40;;;;;;;;;;5053919;28;20240;-49
2023/09/17 08:44:46;;;;;;;10.02;6.22;;;;;;;;;;5054023;28;20665;-49
2023/09/17 08:47:13;;;;;;;12.10;6.68;;;;;;;;;;5052919;28;20242;-49
2023/09/17 08:49:41;;;;;;;11.20;6.60;;;;;;;;;;5054580;28;20722;-50
2023/09/17 08:52:09;;;;;;;13.88;6.93;;;;;;;;;;5064752;28;20711;-59
2023/09/17 08:54:41;;;;;;;9.88;6.43;;;;;;;;;;5070738;28;20224;-59
2023/09/17 08:57:10;;;;;;;9.27;5.85;;;;;;;;;;5063598;28;20253;-60
2023/09/17 08:59:41;;;;;;;12.25;5.55;;;;;;;;;;5072615;28;20248;-60
2023/09/17 09:02:17;;;;;;;8.98;5.75;;;;;;;;;;5073090;28;20235;-60
2023/09/17 09:04:50;;;;;;;9.85;6.07;;;;;;;;;;5071296;28;20230;-60
2023/09/17 09:07:22;;;;;;;10.85;6.25;;;;;;;;;;5073014;28;20230;-57
2023/09/17 09:09:52;;;;;;;10.05;6.38;;;;;;;;;;5072484;28;20223;-59
2023/09/17 09:12:20;;;;;;;8.90;6.07;;;;;;;;;;5072246;28;20306;-58
2023/09/17 09:14:48;;;;;;;10.35;6.43;;;;;;;;;;5072100;28;20294;-59
2023/09/17 09:17:15;;;;;;;9.65;5.90;;;;;;;;;;5069990;28;20239;-59
2023/09/17 09:19:42;;;;;;;10.20;6.07;;;;;;;;;;5072743;28;20230;-60
2023/09/17 09:22:10;;;;;;;9.20;5.45;;;;;;;;;;5063645;28;20246;-60
2023/09/17 09:24:41;;;;;;;10.55;5.90;;;;;;;;;;5071051;28;21077;-59
2023/09/17 09:27:09;;;;;;;9.38;5.90;;;;;;;;;;5071988;28;20219;-60
2023/09/17 09:29:36;;;;;;;9.45;5.57;;;;;;;;;;5077138;28;20211;-59
2023/09/17 09:32:04;;;;;;;9.48;6.20;;;;;;;;;;5083571;28;20223;-60
2023/09/17 09:34:32;;;;;;;14.60;5.68;;;;;;;;;;5079845;28;20218;-60
2023/09/17 09:37:03;;;;;;;10.68;5.38;;;;;;;;;;5086950;28;20227;-60
2023/09/17 09:39:31;;;;;;;9.23;5.28;;;;;;;;;;5084022;28;20228;-60
2023/09/17 09:41:58;;;;;;;9.07;5.93;;;;;;;;;;5076621;28;20683;-61
2023/09/17 09:44:26;;;;;;;8.23;5.80;;;;;;;;;;5079676;28;20703;-59
2023/09/17 09:46:57;;;;;;;9.43;5.45;;;;;;;;;;5080073;28;20221;-61
2023/09/17 09:49:25;;;;;;;8.48;5.43;;;;;;;;;;5077854;28;20251;-61
2023/09/17 09:51:52;;;;;;;8.60;5.10;;;;;;;;;;5073961;28;20224;-61
2023/09/17 09:54:19;;;;;;;9.07;5.40;;;;;;;;;;5077074;28;20325;-59
2023/09/17 09:56:50;;;;;;;8.50;5.47;;;;;;;;;;5081384;28;20214;-59
2023/09/17 09:59:17;;;;;;;8.43;5.63;;;;;;;;;;5078953;28;20206;-60
2023/09/17 10:01:45;;;;;;;9.45;5.93;;;;;;;;;;5080693;28;20227;-60
2023/09/17 10:04:13;;;;;;;11.52;5.45;;;;;;;;;;5085011;28;20589;-59
2023/09/17 10:06:41;;;;;;;6.68;4.55;;;;;;;;;;5077624;28;20220;-59
2023/09/17 10:09:10;;;;;;;9.30;5.40;;;;;;;;;;5070879;28;20688;-60
2023/09/17 10:11:38;;;;;;;7.32;4.68;;;;;;;;;;5071087;28;20215;-61
2023/09/17 10:14:06;;;;;;;9.77;4.80;;;;;;;;;;5072033;28;20227;-60
2023/09/17 10:16:36;;;;;;;8.32;4.85;;;;;;;;;;5071100;28;20231;-60
2023/09/17 10:19:07;;;;;;;7.60;5.07;;;;;;;;;;5074581;28;20223;-60
2023/09/17 10:21:37;;;;;;;10.32;5.15;;;;;;;;;;5077219;28;20695;-60
2023/09/17 10:24:05;;;;;;;9.82;5.03;;;;;;;;;;5079791;28;20219;-61
2023/09/17 10:26:41;;;;;;;11.88;5.30;;;;;;;;;;5076849;28;20211;-61
2023/09/17 10:29:15;;;;;;;9.38;5.28;;;;;;;;;;5072673;28;20222;-60
2023/09/17 10:31:43;;;;;;;8.95;4.93;;;;;;;;;;5080096;28;20219;-61
2023/09/17 10:34:12;;;;;;;11.60;5.50;;;;;;;;;;5077261;28;20226;-60
2023/09/17 10:36:42;;;;;;;10.93;5.50;;;;;;;;;;5078637;28;20328;-61
2023/09/17 10:39:10;;;;;;;7.45;4.60;;;;;;;;;;5075747;28;20227;-61
2023/09/17 10:41:37;;;;;;;7.65;4.80;;;;;;;;;;5077961;28;20230;-58
2023/09/17 10:44:05;;;;;;;7.30;5.07;;;;;;;;;;5096592;28;20222;-58
2023/09/17 10:46:35;;;;;;;8.43;5.30;;;;;;;;;;5095450;28;20707;-59
2023/09/17 10:49:04;;;;;;;7.22;5.10;;;;;;;;;;5096051;28;20762;-58
2023/09/17 10:51:32;;;;;;;7.93;5.18;;;;;;;;;;5096268;28;20223;-56
2023/09/17 10:53:59;;;;;;;8.77;5.32;;;;;;;;;;5085107;28;20226;-55
2023/09/17 10:56:26;;;;;;;9.82;5.50;;;;;;;;;;5075991;28;20219;-57
2023/09/17 10:58:53;;;;;;;8.13;5.53;;;;;;;;;;5063448;28;20615;-53
2023/09/17 11:01:25;;;;;;;10.20;5.63;;;;;;;;;;5084660;28;20218;-60
2023/09/17 11:03:59;;;;;;;6.65;4.80;;;;;;;;;;5078936;28;20250;-63
2023/09/17 11:06:29;;;;;;;8.05;5.15;;;;;;;;;;5074295;28;20215;-61
2023/09/17 11:08:56;;;;;;;10.32;5.22;;;;;;;;;;5075675;28;20758;-61
2023/09/17 11:11:25;;;;;;;6.50;4.50;;;;;;;;;;5074745;28;20223;-61
2023/09/17 11:13:53;;;;;;;7.93;4.95;;;;;;;;;;5076090;28;20224;-61
2023/09/17 11:16:24;;;;;;;10.15;5.32;;;;;;;;;;5075387;28;20219;-60
2023/09/17 11:19:20;;;;;;;7.47;5.60;;;;;;;;;;5075711;28;20302;-60
2023/09/17 11:21:50;;;;;;;6.53;4.68;;;;;;;;;;5013059;28;20714;-61
2023/09/17 11:24:19;;;;;;;7.85;4.95;;;;;;;;;;5013634;28;20695;-61
2023/09/17 11:26:47;;;;;;;8.40;5.03;;;;;;;;;;5013184;28;20225;-59
2023/09/17 11:29:15;;;;;;;6.43;4.72;;;;;;;;;;5013724;28;20225;-58
2023/09/17 11:31:51;;;;;;;7.70;5.20;;;;;;;;;;5013309;28;20368;-58
2023/09/17 11:34:20;;;;;;;13.57;4.90;;;;;;;;;;5004954;28;20213;-60
2023/09/17 11:36:48;;;;;;;8.57;4.90;;;;;;;;;;5010691;28;20649;-60
2023/09/17 11:39:16;;;;;;;7.80;4.80;;;;;;;;;;5012366;28;20228;-60
2023/09/17 11:41:50;;;;;;;10.40;5.20;;;;;;;;;;5014036;28;20309;-60
2023/09/17 11:44:20;;;;;;;7.28;4.88;;;;;;;;;;5003629;28;20792;-60
2023/09/17 11:46:47;;;;;;;7.60;4.45;;;;;;;;;;4992668;28;20240;-62
2023/09/17 11:49:15;;;;;;;5.18;4.15;;;;;;;;;;5008840;28;20213;-60
2023/09/17 11:51:44;;;;;;;6.25;4.47;;;;;;;;;;5013182;28;20288;-59
2023/09/17 11:54:15;;;;;;;7.75;4.65;;;;;;;;;;5013014;28;20201;-60
2023/09/17 11:56:49;;;;;;;5.53;4.57;;;;;;;;;;4981198;28;20212;-59
2023/09/17 11:59:16;;;;;;;6.00;4.32;;;;;;;;;;5062030;28;20290;-58
2023/09/17 12:01:47;;;;;;;9.43;4.53;;;;;;;;;;5055848;28;20204;-58
2023/09/17 12:04:15;;;;;;;9.73;4.80;;;;;;;;;;5055662;28;20282;-58
2023/09/17 12:06:45;;;;;;;14.75;4.68;;;;;;;;;;5054225;28;20257;-58
2023/09/17 12:10:16;;;;;;;8.07;5.05;;;;;;;;;;5055629;28;20203;-60
2023/09/17 12:12:11;;;;;;;8.60;4.97;;;;;;;;;;5044868;28;20742;-58
2023/09/17 12:14:39;;;;;;;8.20;4.60;;;;;;;;;;5073448;28;20235;-59
2023/09/17 12:17:07;;;;;;;8.25;4.68;;;;;;;;;;5074595;28;20243;-57
2023/09/17 12:19:34;;;;;;;6.68;4.32;;;;;;;;;;5074730;28;20250;-59
2023/09/17 12:22:07;;;;;;;6.50;4.22;;;;;;;;;;5072928;28;20231;-59
2023/09/17 12:24:37;;;;;;;6.82;4.38;;;;;;;;;;5075325;28;20264;-58
2023/09/17 12:29:44;;;;;;;5.20;3.97;;;;;;;;;;5068941;28;20203;-61
2023/09/17 12:32:11;;;;;;;6.78;4.47;;;;;;;;;;5074723;28;20204;-61
2023/09/17 12:34:41;;;;;;;6.38;3.90;;;;;;;;;;5073514;28;20554;-61
2023/09/17 12:37:12;;;;;;;5.43;4.25;;;;;;;;;;5074716;28;20211;-61
2023/09/17 12:39:42;;;;;;;5.60;3.92;;;;;;;;;;5074747;28;20218;-59
2023/09/17 12:42:09;;;;;;;5.78;4.10;;;;;;;;;;5074619;28;20188;-61
2023/09/17 12:44:36;;;;;;;4.75;3.75;;;;;;;;;;5074310;28;20205;-61
2023/09/17 12:47:04;;;;;;;6.15;3.80;;;;;;;;;;5074539;28;20249;-60
2023/09/17 12:49:32;;;;;;;5.97;4.30;;;;;;;;;;5073976;28;20195;-60
2023/09/17 12:52:00;;;;;;;5.65;4.00;;;;;;;;;;5073160;28;20199;-61
2023/09/17 12:54:28;;;;;;;8.35;4.05;;;;;;;;;;5073938;28;20207;-60
2023/09/17 12:56:56;;;;;;;4.55;3.20;;;;;;;;;;5073718;28;20205;-60
2023/09/17 12:59:35;;;;;;;5.03;3.55;;;;;;;;;;5072563;28;20252;-60
2023/09/17 13:02:04;;;;;;;4.47;3.60;;;;;;;;;;5073584;28;20190;-61
2023/09/17 13:04:34;;;;;;;7.93;4.40;;;;;;;;;;5073494;28;20223;-60
2023/09/17 13:07:22;;;;;;;4.90;3.65;;;;;;;;;;5073794;28;20195;-61
2023/09/17 13:09:53;;;;;;;8.43;4.15;;;;;;;;;;5072369;28;20203;-61
2023/09/17 13:12:23;;;;;;;10.52;3.97;;;;;;;;;;5073782;28;20313;-61
2023/09/17 13:14:51;;;;;;;6.93;3.92;;;;;;;;;;5073679;28;20226;-60
2023/09/17 13:17:22;;;;;;;5.05;4.03;;;;;;;;;;5072235;28;20223;-60
2023/09/17 13:19:50;;;;;;;4.82;3.33;;;;;;;;;;5073512;28;20270;-60
2023/09/17 13:22:33;;;;;;;4.90;3.70;;;;;;;;;;5071351;28;20249;-61
2023/09/17 13:25:01;;;;;;;5.57;3.58;;;;;;;;;;5072467;28;20204;-60
2023/09/17 13:27:31;;;;;;;4.38;3.70;;;;;;;;;;5070424;28;20207;-61
2023/09/17 13:30:00;;;;;;;6.22;3.95;;;;;;;;;;5059991;28;20192;-61
2023/09/17 13:32:28;;;;;;;4.88;3.95;;;;;;;;;;5072409;28;20679;-61
2023/09/17 13:34:57;;;;;;;6.05;3.80;;;;;;;;;;5073310;28;20199;-61
2023/09/17 13:37:24;;;;;;;3.92;3.53;;;;;;;;;;5072177;28;20199;-61
2023/09/17 13:39:52;;;;;;;3.90;3.40;;;;;;;;;;5073406;28;20210;-61
2023/09/17 13:42:20;;;;;;;4.95;3.55;;;;;;;;;;5072089;28;20244;-60
2023/09/17 13:44:47;;;;;;;4.65;3.42;;;;;;;;;;5073255;28;20292;-60
2023/09/17 13:47:14;;;;;;;4.38;3.30;;;;;;;;;;5072937;28;20653;-61
2023/09/17 13:49:42;;;;;;;6.55;3.78;;;;;;;;;;5073261;28;20207;-61
2023/09/17 13:52:09;;;;;;;4.85;3.45;;;;;;;;;;5073180;28;20223;-61
2023/09/17 13:54:38;;;;;;;4.45;3.47;;;;;;;;;;5073038;28;20199;-61
2023/09/17 13:57:06;;;;;;;5.45;3.60;;;;;;;;;;5072596;28;20225;-61
2023/09/17 13:59:33;;;;;;;6.07;3.40;;;;;;;;;;5072753;28;20233;-61
2023/09/17 14:02:02;;;;;;;8.13;3.80;;;;;;;;;;5073252;28;20241;-61
2023/09/17 14:04:29;;;;;;;5.55;3.92;;;;;;;;;;5072734;28;20235;-61
2023/09/17 14:06:56;;;;;;;4.65;3.65;;;;;;;;;;5072836;28;20679;-61
2023/09/17 14:09:24;;;;;;;6.65;3.97;;;;;;;;;;5071867;28;20249;-61
2023/09/17 14:11:51;;;;;;;4.13;3.30;;;;;;;;;;5072740;28;20203;-60
2023/09/17 14:14:18;;;;;;;4.20;3.60;;;;;;;;;;5072797;28;20207;-61
2023/09/17 14:16:46;;;;;;;4.72;3.83;;;;;;;;;;5072209;28;20227;-61
2023/09/17 14:19:17;;;;;;;5.47;3.78;;;;;;;;;;5072490;28;20556;-61
2023/09/17 14:21:46;;;;;;;5.35;3.28;;;;;;;;;;5072663;28;20203;-61
2023/09/17 14:24:13;;;;;;;3.53;3.15;;;;;;;;;;5072915;28;20235;-61
2023/09/17 14:26:41;;;;;;;4.55;3.70;;;;;;;;;;5072814;28;20290;-61
2023/09/17 14:29:08;;;;;;;5.22;3.67;;;;;;;;;;5072555;28;20214;-60
2023/09/17 14:31:36;;;;;;;5.78;3.47;;;;;;;;;;5071724;28;20674;-61
2023/09/17 14:34:08;;;;;;;5.78;3.85;;;;;;;;;;5071720;28;20195;-60
2023/09/17 14:36:35;;;;;;;8.38;4.25;;;;;;;;;;5072161;28;20206;-60
2023/09/17 14:39:03;;;;;;;5.35;3.75;;;;;;;;;;5071876;28;20207;-60
2023/09/17 14:41:30;;;;;;;3.95;3.40;;;;;;;;;;5072218;28;20200;-59
2023/09/17 14:43:57;;;;;;;4.28;3.58;;;;;;;;;;5071252;28;20224;-60
2023/09/17 14:46:24;;;;;;;4.63;3.47;;;;;;;;;;5072368;28;20249;-59
2023/09/17 14:48:52;;;;;;;9.43;3.50;;;;;;;;;;5072373;28;20216;-60